Latest Weather Observations for PORTABLE QFRK (Ravenshoe)

IDQ60801

Issued at 11:52 pm EST Thursday 6 October 2022 (issued every 10 minutes, with the page automatically refreshed every 10 minutes)

About weather observations | Map of weather stations | Latest weather observations for QLD | Other Formats
Station Details ID: 250075 Name: RAVENSHOE (QFRK) Lat: -17.61 Lon: 145.49 Height: 922.0 m

Portable automatic weather stations (PAWS) are operated by other organisations, such as Fire and Emergency Services, and are included here by agreement. Portable stations may be deployed to a location for a short period and their location may be subject to change without notice. Wind observations from these stations are provided from heights of either three (3) or ten (10) metres above ground level (AGL).

Data from the previous 72 hours. | See also: Recent months for locations in Queensland
Date/Time
EST
Temp
°C
App
Temp
°C
Dew
Point
°C
Rel
Hum
%
Delta-T
°C
Wind Press
QNH
hPa
Press
MSL
hPa
Rain since
9am
mm
Dir  Spd
km/h
Gust
km/h
Spd
kts
Gust
kts
06/11:40pm 17.9 18.5 16.8 93 0.7 E 9 15 5 8 - - 0.2
06/11:30pm 18.0 18.6 16.9 93 0.7 E 9 15 5 8 - - 0.2
06/11:20pm 18.1 19.2 17.0 93 0.7 E 7 15 4 8 - - 0.2
06/11:10pm 18.2 18.5 17.1 93 0.7 E 11 17 6 9 - - 0.2
06/11:00pm 18.2 18.9 17.1 93 0.7 E 9 17 5 9 - - 0.2
06/10:50pm 18.2 18.5 17.1 93 0.7 E 11 13 6 7 - - 0.2
06/10:40pm 18.0 18.7 17.0 94 0.6 E 9 13 5 7 - - 0.2
06/10:30pm 18.2 18.2 17.2 94 0.6 E 13 17 7 9 - - 0.2
06/10:20pm 18.1 18.1 17.2 94 0.6 E 13 20 7 11 - - 0.2
06/10:10pm 18.1 18.1 17.2 94 0.6 E 13 20 7 11 - - 0.2
06/10:00pm 18.1 18.1 17.2 94 0.6 E 13 19 7 10 - - 0.2
06/09:50pm 18.2 18.7 17.4 95 0.5 E 11 19 6 10 - - 0.2
06/09:40pm 18.1 19.3 17.3 95 0.5 E 7 9 4 5 - - 0.2
06/09:30pm 18.0 18.7 17.1 94 0.6 E 9 13 5 7 - - 0.2
06/09:20pm 17.9 19.5 17.0 94 0.6 E 4 11 2 6 - - 0.2
06/09:10pm 17.9 18.9 16.8 93 0.7 E 7 11 4 6 - - 0.2
06/09:00pm 17.6 18.1 16.5 93 0.7 E 9 11 5 6 - - 0.2
06/08:50pm 17.7 17.8 16.4 92 0.8 E 11 15 6 8 - - 0.2
06/08:40pm 17.9 17.3 16.7 93 0.7 E 15 19 8 10 - - 0.2
06/08:30pm 18.0 17.9 16.9 93 0.7 E 13 19 7 10 - - 0.2
06/08:20pm 18.4 18.9 17.5 94 0.6 E 11 13 6 7 - - 0.2
06/08:10pm 18.3 18.8 17.4 94 0.6 E 11 15 6 8 - - 0.2
06/08:00pm 18.3 18.8 17.4 94 0.6 E 11 15 6 8 - - 0.2
06/07:50pm 18.3 18.3 17.3 94 0.6 E 13 15 7 8 - - 0.2
06/07:40pm 18.4 18.9 17.4 94 0.6 E 11 17 6 9 - - 0.2
06/07:30pm 18.4 18.9 17.5 94 0.6 E 11 15 6 8 - - 0.2
06/07:20pm 18.5 19.0 17.5 94 0.6 E 11 17 6 9 - - 0.2
06/07:10pm 18.6 18.8 17.6 94 0.6 E 13 20 7 11 - - 0.2
06/07:00pm 18.7 18.6 17.8 94 0.6 E 15 19 8 10 - - 0.0
06/06:50pm 18.8 19.1 17.8 94 0.6 E 13 19 7 10 - - 0.0
06/06:40pm 18.9 19.5 17.7 93 0.8 E 11 15 6 8 - - 0.0
06/06:30pm 18.9 19.2 17.8 93 0.7 E 13 15 7 8 - - 0.0
06/06:20pm 19.0 20.1 18.0 94 0.6 E 9 13 5 7 - - 0.0
06/06:10pm 19.1 20.2 18.0 93 0.7 E 9 11 5 6 - - 0.0
06/06:00pm 19.1 19.8 18.0 93 0.7 ENE 11 15 6 8 - - 0.0
06/05:50pm 19.6 20.5 18.4 93 0.8 E 11 13 6 7 - - 0.0
06/05:40pm 19.9 20.9 18.6 92 0.8 E 11 13 6 7 - - 0.0
06/05:30pm 20.0 21.0 18.7 92 0.8 ENE 11 13 6 7 - - 0.0
06/05:20pm 20.1 21.1 18.7 92 0.9 ENE 11 13 6 7 - - 0.0
06/05:10pm 20.7 22.1 18.7 88 1.3 E 9 13 5 7 - - 0.0
06/05:00pm 20.6 21.1 18.4 87 1.4 E 13 15 7 8 - - 0.0
06/04:50pm 20.5 21.4 18.3 87 1.4 E 11 13 6 7 - - 0.0
06/04:40pm 20.2 21.2 18.7 91 1.0 ENE 11 17 6 9 - - 0.0
06/04:30pm 20.4 21.0 18.6 89 1.2 ENE 13 15 7 8 - - 0.0
06/04:20pm 21.8 23.3 18.8 83 2.0 E 9 13 5 7 - - 0.0
06/04:10pm 21.9 23.2 18.5 81 2.2 E 9 13 5 7 - - 0.0
06/04:00pm 22.3 23.2 18.4 78 2.5 E 11 13 6 7 - - 0.0
06/03:50pm 22.3 22.4 18.4 78 2.5 E 15 17 8 9 - - 0.0
06/03:40pm 22.6 23.3 18.0 75 3.0 E 11 15 6 8 - - 0.0
06/03:30pm 22.3 22.3 18.1 77 2.7 E 15 19 8 10 - - 0.0
06/03:20pm 23.0 23.0 18.1 74 3.2 E 15 19 8 10 - - 0.0
06/03:10pm 22.8 22.9 18.3 76 2.9 E 15 17 8 9 - - 0.0
06/03:00pm 22.1 22.2 18.4 79 2.4 E 15 17 8 9 - - 0.0
06/02:50pm 21.7 22.3 18.7 83 2.0 E 13 17 7 9 - - 0.0
06/02:40pm 22.1 22.9 19.0 82 2.0 E 13 17 7 9 - - 0.0
06/02:30pm 22.5 23.6 18.8 79 2.4 E 11 15 6 8 - - 0.0
06/02:20pm 21.9 22.6 18.8 82 2.0 E 13 19 7 10 - - 0.0
06/02:10pm 21.7 22.1 19.1 85 1.7 E 15 19 8 10 - - 0.0
06/02:00pm 21.7 22.9 19.9 89 1.2 ENE 13 17 7 9 - - 0.0
06/01:50pm 22.8 23.9 19.7 83 2.1 ENE 13 15 7 8 - - 0.0
06/01:40pm 23.6 24.4 18.1 71 3.6 ENE 11 15 6 8 - - 0.0
06/01:30pm 23.0 23.1 18.4 75 3.0 E 15 19 8 10 - - 0.0
06/01:20pm 22.9 23.1 18.6 77 2.8 E 15 19 8 10 - - 0.0
06/01:10pm 22.1 21.9 18.5 80 2.3 E 17 22 9 12 - - 0.0
06/01:00pm 22.1 23.5 19.5 85 1.7 E 11 17 6 9 - - 0.0
06/12:50pm 22.1 23.6 19.7 86 1.6 E 11 13 6 7 - - 0.0
06/12:40pm 23.1 24.2 19.6 80 2.3 E 13 19 7 10 - - 0.0
06/12:30pm 24.9 24.3 18.5 67 4.2 ENE 19 22 10 12 - - 0.0
06/12:20pm 24.6 23.9 18.3 68 4.1 E 19 22 10 12 - - 0.0
06/12:10pm 24.5 24.1 18.1 67 4.2 E 17 19 9 10 - - 0.0
06/12:00pm 24.4 24.0 18.1 68 4.1 E 17 20 9 11 - - 0.0
06/11:50am 23.8 22.9 17.8 69 3.9 E 19 24 10 13 - - 0.0
06/11:40am 23.3 23.0 18.2 73 3.3 E 17 22 9 12 - - 0.0
06/11:30am 23.2 22.6 17.6 71 3.6 E 17 20 9 11 - - 0.0
06/11:20am 23.4 22.9 18.6 74 3.1 E 19 24 10 13 - - 0.0
06/11:10am 23.8 23.3 17.7 68 3.9 ENE 17 22 9 12 - - 0.0
06/11:00am 23.2 22.7 17.7 71 3.6 ENE 17 19 9 10 - - 0.0
06/10:50am 23.1 22.7 18.1 73 3.2 E 17 20 9 11 - - 0.0
06/10:40am 23.0 22.3 18.2 74 3.1 E 19 22 10 12 - - 0.0
06/10:30am 23.0 22.8 18.5 76 2.9 ENE 17 22 9 12 - - 0.0
06/10:20am 22.2 22.3 18.4 79 2.5 E 15 20 8 11 - - 0.0
06/10:10am 22.1 21.7 18.0 77 2.7 E 17 22 9 12 - - 0.0
06/10:00am 21.1 20.9 18.4 84 1.8 E 17 22 9 12 - - 0.0
06/09:50am 20.9 20.3 18.4 85 1.6 E 19 22 10 12 - - 0.0
06/09:40am 20.6 20.9 18.7 89 1.2 ENE 15 19 8 10 - - 0.0
06/09:30am 20.8 21.0 18.6 87 1.4 ENE 15 19 8 10 - - 0.0
06/09:20am 20.7 20.6 18.8 89 1.2 E 17 19 9 10 - - 0.0
06/09:10am 20.4 21.6 19.1 92 0.9 ENE 11 19 6 10 - - 0.0
06/09:00am 20.2 20.5 18.7 91 1.0 E 15 19 8 10 - - 1.2
06/08:50am 20.0 20.7 18.9 93 0.7 ENE 13 19 7 10 - - 1.2
06/08:40am 19.8 20.8 18.6 93 0.8 ENE 11 15 6 8 - - 1.2
06/08:30am 19.6 20.5 18.5 93 0.7 ENE 11 13 6 7 - - 1.2
06/08:20am 19.5 20.1 18.5 94 0.6 E 13 15 7 8 - - 1.2
06/08:10am 19.5 20.0 18.3 93 0.8 E 13 17 7 9 - - 1.2
06/08:00am 19.7 20.7 18.7 94 0.6 ENE 11 15 6 8 - - 1.2
06/07:50am 19.2 19.7 18.3 94 0.6 ENE 13 15 7 8 - - 1.2
06/07:40am 19.1 20.0 18.3 95 0.5 ENE 11 15 6 8 - - 1.2
06/07:30am 18.8 19.5 17.9 94 0.6 ENE 11 15 6 8 - - 1.2
06/07:20am 18.8 19.9 18.0 95 0.5 ENE 9 13 5 7 - - 1.2
06/07:10am 18.6 19.3 17.9 96 0.4 ENE 11 17 6 9 - - 1.2
06/07:00am 18.5 19.5 17.7 95 0.5 ENE 9 15 5 8 - - 1.2
06/06:50am 18.3 19.2 17.5 95 0.5 ENE 9 13 5 7 - - 1.2
06/06:40am 18.1 19.3 17.4 96 0.4 ENE 7 11 4 6 - - 1.2
06/06:30am 18.1 18.9 17.4 96 0.4 ENE 9 15 5 8 - - 1.2
06/06:20am 18.0 18.8 17.3 96 0.4 ENE 9 11 5 6 - - 1.2
06/06:10am 18.0 18.8 17.3 96 0.4 ENE 9 13 5 7 - - 1.2
06/06:00am 17.9 18.3 17.2 96 0.4 ENE 11 15 6 8 - - 1.0
06/05:50am 18.0 18.4 17.3 96 0.4 ENE 11 15 6 8 - - 1.0
06/05:40am 18.0 18.4 17.3 96 0.4 ENE 11 15 6 8 - - 1.0
06/05:30am 18.0 18.5 17.4 96 0.4 ENE 11 15 6 8 - - 1.0
06/05:20am 18.1 18.2 17.5 96 0.4 ENE 13 20 7 11 - - 1.0
06/05:10am 18.2 18.4 17.6 96 0.4 ENE 13 17 7 9 - - 1.0
06/05:00am 18.3 18.9 17.7 96 0.4 E 11 13 6 7 - - 0.8
06/04:50am 18.3 19.6 17.6 96 0.4 ENE 7 11 4 6 - - 0.8
06/04:40am 18.2 19.1 17.6 96 0.4 ENE 9 11 5 6 - - 0.8
06/04:30am 18.2 19.7 17.5 96 0.4 E 6 9 3 5 - - 0.8
06/04:20am 18.1 20.3 17.5 96 0.4 NE 2 6 1 3 - - 0.8
06/04:10am 18.1 19.6 17.5 96 0.4 ENE 6 9 3 5 - - 0.8
06/04:00am 18.1 19.4 17.5 96 0.4 ENE 7 13 4 7 - - 0.8
06/03:50am 18.1 19.3 17.4 96 0.4 NE 7 11 4 6 - - 0.6
06/03:40am 18.0 19.2 17.4 96 0.4 ENE 7 13 4 7 - - 0.6
06/03:30am 18.0 19.2 17.3 96 0.4 ENE 7 11 4 6 - - 0.6
06/03:20am 17.9 17.9 17.3 96 0.4 E 13 17 7 9 - - 0.6
06/03:10am 17.9 17.6 17.3 96 0.4 E 15 19 8 10 - - 0.6
06/03:00am 18.0 18.4 17.3 96 0.4 E 11 13 6 7 - - 0.6
06/02:50am 18.0 18.0 17.3 96 0.4 E 13 17 7 9 - - 0.6
06/02:40am 18.0 18.0 17.3 96 0.4 E 13 15 7 8 - - 0.6
06/02:30am 18.0 18.4 17.3 96 0.4 E 11 13 6 7 - - 0.6
06/02:20am 18.0 18.4 17.3 96 0.4 ENE 11 15 6 8 - - 0.6
06/02:10am 17.9 18.7 17.2 96 0.4 ENE 9 11 5 6 - - 0.4
06/02:00am 17.8 18.5 17.1 96 0.4 ENE 9 13 5 7 - - 0.4
06/01:50am 17.8 17.8 17.1 96 0.4 E 13 17 7 9 - - 0.4
06/01:40am 17.8 19.1 17.2 96 0.4 ENE 6 9 3 5 - - 0.4
06/01:30am 17.8 19.1 17.1 96 0.4 NE 6 9 3 5 - - 0.4
06/01:20am 17.8 19.5 17.1 96 0.4 NE 4 6 2 3 - - 0.4
06/01:10am 17.8 19.1 17.1 96 0.4 NE 6 7 3 4 - - 0.4
06/01:00am 17.8 18.9 17.1 96 0.4 ENE 7 13 4 7 - - 0.4
06/12:50am 17.8 18.1 17.1 96 0.4 ENE 11 17 6 9 - - 0.2
06/12:40am 17.8 18.5 17.1 96 0.4 ENE 9 13 5 7 - - 0.2
06/12:30am 17.8 18.1 17.0 95 0.5 ENE 11 17 6 9 - - 0.2
06/12:20am 17.7 18.0 16.9 95 0.5 ENE 11 13 6 7 - - 0.2
06/12:10am 17.7 18.7 16.8 94 0.6 ENE 7 11 4 6 - - 0.2
06/12:00am 17.7 18.6 16.7 94 0.6 ENE 7 9 4 5 - - 0.2
 
Date/Time
EST
Temp
°C
App
Temp
°C
Dew
Point
°C
Rel
Hum
%
Delta-T
°C
Wind Press
QNH
hPa
Press
MSL
hPa
Rain since
9am
mm
Dir  Spd
km/h
Gust
km/h
Spd
kts
Gust
kts
05/11:50pm 17.6 18.1 16.6 94 0.6 ENE 9 13 5 7 - - 0.2
05/11:40pm 17.7 18.8 16.6 93 0.7 NNE 6 9 3 5 - - 0.2
05/11:30pm 17.7 18.8 16.7 94 0.6 E 6 11 3 6 - - 0.2
05/11:20pm 17.7 18.6 16.7 94 0.6 E 7 11 4 6 - - 0.2
05/11:10pm 17.7 17.5 16.8 94 0.6 E 13 17 7 9 - - 0.2
05/11:00pm 17.7 17.5 16.8 94 0.6 E 13 19 7 10 - - 0.2
05/10:50pm 17.8 18.4 16.8 94 0.6 E 9 13 5 7 - - 0.2
05/10:40pm 17.8 18.7 16.7 93 0.7 E 7 9 4 5 - - 0.2
05/10:30pm 17.8 18.4 16.7 93 0.7 E 9 13 5 7 - - 0.2
05/10:20pm 17.9 18.5 16.7 93 0.7 E 9 11 5 6 - - 0.2
05/10:10pm 17.9 18.4 16.6 92 0.8 E 9 15 5 8 - - 0.2
05/10:00pm 17.9 18.8 16.5 91 0.9 E 7 11 4 6 - - 0.2
05/09:50pm 17.8 19.2 16.3 91 0.9 ENE 4 7 2 4 - - 0.2
05/09:40pm 17.7 18.6 16.2 91 0.9 E 6 11 3 6 - - 0.2
05/09:30pm 17.6 17.9 16.1 91 0.9 E 9 13 5 7 - - 0.2
05/09:20pm 17.5 18.1 15.9 90 1.0 E 7 9 4 5 - - 0.2
05/09:10pm 17.5 18.1 15.9 90 1.0 E 7 13 4 7 - - 0.2
05/09:00pm 17.6 17.2 16.2 91 0.9 E 13 19 7 10 - - 0.2
05/08:50pm 17.5 17.4 16.1 91 0.9 E 11 15 6 8 - - 0.2
05/08:40pm 17.5 17.0 16.0 91 0.9 E 13 17 7 9 - - 0.2
05/08:30pm 17.5 17.1 16.1 91 0.9 E 13 17 7 9 - - 0.2
05/08:20pm 17.4 17.0 16.1 92 0.8 E 13 17 7 9 - - 0.2
05/08:10pm 17.5 16.7 16.1 91 0.9 E 15 19 8 10 - - 0.2
05/08:00pm 17.5 17.5 16.3 93 0.7 E 11 13 6 7 - - 0.2
05/07:50pm 17.3 17.3 16.2 93 0.7 E 11 15 6 8 - - 0.2
05/07:40pm 17.1 17.8 16.0 93 0.7 ENE 7 11 4 6 - - 0.2
05/07:30pm 17.0 17.8 15.8 93 0.7 ENE 6 7 3 4 - - 0.2
05/07:20pm 17.0 17.7 15.7 92 0.8 ENE 6 9 3 5 - - 0.2
05/07:10pm 17.1 17.3 15.7 91 0.9 ENE 9 13 5 7 - - 0.2
05/07:00pm 17.5 17.0 16.0 91 0.9 E 13 15 7 8 - - 0.2
05/06:50pm 17.8 18.6 16.4 91 0.9 E 7 9 4 5 - - 0.0
05/06:40pm 17.9 18.3 16.3 90 1.0 E 9 11 5 6 - - 0.0
05/06:30pm 18.1 18.2 16.5 90 1.0 E 11 17 6 9 - - 0.0
05/06:20pm 18.3 19.2 16.6 90 1.1 E 7 13 4 7 - - 0.0
05/06:10pm 18.4 19.2 16.4 88 1.2 E 7 11 4 6 - - 0.0
05/06:00pm 18.5 19.0 16.5 88 1.2 E 9 11 5 6 - - 0.0
05/05:50pm 18.6 19.1 16.6 88 1.3 - 9 11 5 6 - - 0.0
05/05:40pm 18.8 19.9 17.0 89 1.1 E 7 11 4 6 - - 0.0
05/05:30pm 18.8 19.5 17.0 89 1.1 E 9 13 5 7 - - 0.0
05/05:20pm 18.8 19.9 17.2 90 1.0 E 7 11 4 6 - - 0.0
05/05:10pm 18.9 18.9 17.1 89 1.1 E 13 15 7 8 - - 0.0
05/05:00pm 19.1 19.4 17.0 88 1.3 ENE 11 15 6 8 - - 0.0
05/04:50pm 19.4 19.8 17.3 88 1.3 E 11 15 6 8 - - 0.0
05/04:40pm 19.9 21.3 17.9 88 1.3 - 7 11 4 6 - - 0.0
05/04:30pm 20.3 21.1 17.4 83 1.8 E 9 13 5 7 - - 0.0
05/04:20pm 20.5 20.9 17.2 81 2.1 ENE 11 13 6 7 - - 0.0
05/04:10pm 20.5 21.3 17.2 81 2.1 E 9 13 5 7 - - 0.0
05/04:00pm 20.3 20.6 17.0 81 2.1 E 11 19 6 10 - - 0.0
05/03:50pm 20.9 20.8 17.0 78 2.5 E 13 20 7 11 - - 0.0
05/03:40pm 20.4 20.2 16.8 80 2.3 E 13 15 7 8 - - 0.0
05/03:30pm 20.1 20.0 17.0 82 2.0 E 13 15 7 8 - - 0.0
05/03:20pm 19.1 19.2 17.5 90 1.0 E 13 19 7 10 - - 0.0
05/03:10pm 18.8 18.9 17.5 92 0.8 E 13 15 7 8 - - 0.0
05/03:00pm 18.7 18.2 16.9 89 1.1 E 15 19 8 10 - - 0.0
05/02:50pm 19.0 18.3 17.3 90 1.1 E 17 22 9 12 - - 0.0
05/02:40pm 19.9 19.9 18.1 89 1.2 E 15 19 8 10 - - 0.0
05/02:30pm 19.9 19.7 18.4 91 1.0 E 17 20 9 11 - - 0.0
05/02:20pm 19.7 19.7 18.2 91 1.0 E 15 20 8 11 - - 0.0
05/02:10pm 20.3 20.9 18.5 89 1.2 E 13 19 7 10 - - 0.0
05/02:00pm 20.4 21.4 18.6 89 1.2 ENE 11 15 6 8 - - 0.0
05/01:50pm 21.1 22.0 18.4 84 1.8 NE 11 15 6 8 - - 0.0
05/01:40pm 21.6 22.3 18.0 80 2.3 ENE 11 13 6 7 - - 0.0
05/01:30pm 22.0 22.4 18.1 78 2.5 ENE 13 19 7 10 - - 0.0
05/01:20pm 21.7 22.0 17.8 78 2.5 E 13 17 7 9 - - 0.0
05/01:10pm 20.5 21.0 18.3 87 1.4 E 13 17 7 9 - - 0.0
05/01:00pm 20.0 19.8 17.7 86 1.5 E 15 22 8 12 - - 0.0
05/12:50pm 20.2 19.3 17.8 86 1.5 E 19 26 10 14 - - 0.0
05/12:40pm 19.7 19.1 17.6 88 1.3 E 17 22 9 12 - - 0.0
05/12:30pm 19.6 18.1 17.7 89 1.2 E 22 26 12 14 - - 0.0
05/12:20pm 20.1 19.0 17.8 86 1.5 E 20 24 11 13 - - 0.0
05/12:10pm 20.5 19.7 18.4 88 1.4 E 20 24 11 13 - - 0.0
05/12:00pm 20.7 20.3 19.0 90 1.1 E 19 22 10 12 - - 0.0
05/11:50am 20.4 20.7 18.7 90 1.1 E 15 19 8 10 - - 0.0
05/11:40am 20.7 21.6 19.2 91 1.0 E 13 15 7 8 - - 0.0
05/11:30am 20.7 20.4 18.2 85 1.6 E 17 20 9 11 - - 0.0
05/11:20am 20.9 20.5 18.0 83 1.9 E 17 22 9 12 - - 0.0
05/11:10am 20.2 20.5 18.7 91 1.0 E 15 19 8 10 - - 0.0
05/11:00am 20.0 19.2 18.0 88 1.3 E 19 24 10 13 - - 0.0
05/10:50am 20.3 20.0 18.2 88 1.4 E 17 26 9 14 - - 0.0
05/10:40am 21.0 21.0 18.1 83 1.9 E 15 19 8 10 - - 0.0
05/10:30am 20.3 20.0 18.3 88 1.3 E 17 20 9 11 - - 0.0
05/10:20am 19.7 19.4 18.2 91 1.0 E 17 20 9 11 - - 0.0
05/10:10am 19.9 19.1 18.1 89 1.2 E 19 20 10 11 - - 0.0
05/10:00am 19.8 20.8 18.7 93 0.7 ENE 11 15 6 8 - - 0.0
05/09:50am 19.3 18.8 17.7 90 1.0 ENE 17 20 9 11 - - 0.0
05/09:40am 19.4 19.2 17.7 90 1.1 E 15 20 8 11 - - 0.0
05/09:30am 19.2 18.1 17.4 89 1.1 E 19 22 10 12 - - 0.0
05/08:50am 18.9 18.7 17.5 92 0.9 ENE 15 17 8 9 - - 3.0
05/08:40am 18.8 18.2 17.6 93 0.8 E 17 19 9 10 - - 3.0
05/08:10am 18.4 18.3 17.0 91 0.9 ENE 13 19 7 10 - - 3.0
05/08:00am 18.5 18.8 17.0 91 0.9 ENE 11 15 6 8 - - 3.0
05/07:50am 18.2 17.7 16.8 91 0.9 E 15 19 8 10 - - 3.0
05/07:40am 17.9 17.6 16.5 91 0.9 E 13 17 7 9 - - 3.0
05/07:30am 17.8 16.3 16.4 91 0.9 ENE 19 22 10 12 - - 3.0
05/07:20am 17.8 16.8 16.6 93 0.7 ENE 17 22 9 12 - - 3.0
05/07:10am 17.7 16.7 16.7 94 0.6 E 17 22 9 12 - - 2.8
05/07:00am 17.6 17.0 16.6 94 0.6 E 15 19 8 10 - - 2.8
05/06:50am 17.6 16.6 16.6 94 0.6 ENE 17 20 9 11 - - 2.8
05/06:40am 17.7 17.5 16.7 94 0.6 E 13 19 7 10 - - 2.8
05/06:30am 17.6 17.4 16.6 94 0.6 E 13 19 7 10 - - 2.8
05/06:20am 17.5 16.5 16.5 94 0.6 E 17 20 9 11 - - 2.8
05/06:10am 17.6 17.3 16.5 93 0.7 E 13 17 7 9 - - 2.8
05/06:00am 17.5 17.6 16.5 94 0.6 E 11 15 6 8 - - 2.8
05/05:50am 17.5 17.2 16.4 93 0.7 E 13 17 7 9 - - 2.8
05/05:40am 17.4 17.4 16.3 93 0.7 E 11 15 6 8 - - 2.8
05/05:30am 17.4 16.6 16.1 92 0.8 E 15 22 8 12 - - 2.8
05/05:20am 17.3 16.8 15.8 91 0.9 E 13 19 7 10 - - 2.8
05/05:10am 17.2 16.2 15.7 91 0.9 E 15 19 8 10 - - 2.8
05/05:00am 17.3 17.2 15.9 91 0.9 E 11 17 6 9 - - 2.8
05/04:50am 17.2 17.4 15.8 91 0.9 E 9 11 5 6 - - 2.8
05/04:40am 17.2 17.1 16.0 93 0.7 E 11 13 6 7 - - 2.8
05/04:30am 17.2 16.8 16.1 93 0.7 E 13 17 7 9 - - 2.8
05/04:20am 17.2 17.1 16.1 93 0.7 E 11 15 6 8 - - 2.8
05/04:10am 17.3 17.3 16.3 94 0.6 ENE 11 17 6 9 - - 2.8
05/04:00am 17.3 16.6 16.3 94 0.6 E 15 19 8 10 - - 2.8
05/03:50am 17.2 16.8 16.2 94 0.6 E 13 17 7 9 - - 2.8
05/03:40am 17.3 17.0 16.4 94 0.6 E 13 19 7 10 - - 2.8
05/03:30am 17.4 16.7 16.5 94 0.6 E 15 17 8 9 - - 2.8
05/03:20am 17.5 16.1 16.5 94 0.6 ENE 19 24 10 13 - - 2.8
05/03:10am 17.5 16.8 16.5 94 0.6 E 15 20 8 11 - - 2.8
05/03:00am 17.6 17.0 16.7 94 0.6 ENE 15 22 8 12 - - 2.8
05/02:50am 17.6 17.4 16.7 94 0.6 ENE 13 19 7 10 - - 2.8
05/02:40am 17.5 17.2 16.5 94 0.6 ENE 13 19 7 10 - - 2.8
05/02:30am 17.4 16.7 16.5 94 0.6 ENE 15 20 8 11 - - 2.8
05/02:20am 17.6 17.8 16.7 94 0.6 ENE 11 19 6 10 - - 2.8
05/02:10am 17.6 18.2 16.7 94 0.6 ENE 9 13 5 7 - - 2.6
05/02:00am 17.6 18.2 16.7 94 0.6 E 9 13 5 7 - - 2.6
05/01:50am 17.6 17.7 16.6 94 0.6 E 11 17 6 9 - - 2.6
05/01:40am 17.6 18.1 16.6 94 0.6 ENE 9 11 5 6 - - 2.6
05/01:30am 17.6 18.1 16.5 93 0.7 E 9 15 5 8 - - 2.4
05/01:20am 17.6 18.4 16.4 93 0.7 ENE 7 11 4 6 - - 2.4
05/01:10am 17.6 18.6 16.3 92 0.8 ENE 6 9 3 5 - - 2.4
05/01:00am 17.6 18.0 16.2 91 0.9 ENE 9 11 5 6 - - 2.4
05/12:50am 17.6 17.6 16.3 92 0.8 ENE 11 20 6 11 - - 2.4
05/12:40am 17.5 17.5 16.3 93 0.7 ENE 11 13 6 7 - - 2.4
05/12:30am 17.5 17.9 16.2 92 0.8 ENE 9 15 5 8 - - 2.4
05/12:20am 17.5 16.7 16.2 92 0.8 ENE 15 19 8 10 - - 2.4
05/12:10am 17.6 16.5 16.4 93 0.7 ENE 17 24 9 13 - - 2.4
05/12:00am 17.6 17.0 16.6 94 0.6 E 15 19 8 10 - - 2.4
 
Date/Time
EST
Temp
°C
App
Temp
°C
Dew
Point
°C
Rel
Hum
%
Delta-T
°C
Wind Press
QNH
hPa
Press
MSL
hPa
Rain since
9am
mm
Dir  Spd
km/h
Gust
km/h
Spd
kts
Gust
kts
04/11:50pm 17.6 16.9 16.5 93 0.7 E 15 19 8 10 - - 2.2
04/11:40pm 17.5 16.8 16.3 93 0.7 E 15 19 8 10 - - 2.2
04/11:30pm 17.7 17.0 16.5 93 0.7 ENE 15 22 8 12 - - 2.2
04/11:20pm 17.9 17.4 16.9 94 0.6 E 15 22 8 12 - - 2.2
04/11:10pm 17.8 18.0 16.7 93 0.7 ENE 11 19 6 10 - - 2.2
04/11:00pm 17.6 18.1 16.5 93 0.7 ENE 9 13 5 7 - - 2.2
04/10:50pm 17.8 17.6 16.7 93 0.7 ENE 13 17 7 9 - - 1.8
04/10:40pm 17.8 17.2 16.7 93 0.7 ENE 15 19 8 10 - - 1.8
04/10:30pm 17.9 17.7 16.8 93 0.7 E 13 15 7 8 - - 1.8
04/10:20pm 17.8 18.0 16.8 94 0.6 E 11 13 6 7 - - 1.8
04/10:10pm 17.8 16.8 16.7 93 0.7 E 17 20 9 11 - - 1.8
04/10:00pm 17.9 17.8 17.0 94 0.6 E 13 19 7 10 - - 1.8
04/09:50pm 17.9 17.8 17.0 94 0.6 E 13 15 7 8 - - 1.6
04/09:40pm 17.9 17.4 16.9 94 0.6 E 15 20 8 11 - - 1.4
04/09:30pm 18.0 17.2 17.1 94 0.6 E 17 22 9 12 - - 1.4
04/09:00pm 17.8 17.6 16.8 94 0.6 ENE 13 15 7 8 - - 1.2
04/08:50pm 17.7 17.1 16.6 93 0.7 ENE 15 19 8 10 - - 1.2
04/08:30pm 17.8 16.9 16.9 94 0.6 ENE 17 22 9 12 - - 1.2
04/08:20pm 18.3 18.4 17.4 94 0.6 ENE 13 22 7 12 - - 1.2
04/08:10pm 18.2 18.6 17.3 94 0.6 ENE 11 15 6 8 - - 1.0
04/08:00pm 18.2 18.2 17.3 94 0.6 E 13 19 7 10 - - 0.8
04/07:50pm 18.1 18.5 17.2 94 0.6 E 11 15 6 8 - - 0.8
04/07:40pm 18.1 18.1 17.1 94 0.6 E 13 17 7 9 - - 0.8
04/07:30pm 17.9 18.9 16.9 94 0.6 ENE 7 9 4 5 - - 0.6
04/07:20pm 17.7 18.6 16.6 93 0.7 ENE 7 9 4 5 - - 0.6
04/07:10pm 17.8 18.3 16.5 92 0.8 ENE 9 15 5 8 - - 0.4
04/07:00pm 18.0 18.5 16.6 91 0.9 E 9 11 5 6 - - 0.4
04/06:50pm 18.0 18.9 16.5 91 0.9 E 7 9 4 5 - - 0.4
04/06:40pm 17.9 17.9 16.3 90 1.0 E 11 13 6 7 - - 0.4
04/06:30pm 17.9 18.3 16.3 90 1.0 ENE 9 15 5 8 - - 0.4
04/06:20pm 17.9 18.3 16.3 90 1.0 E 9 11 5 6 - - 0.4
04/06:10pm 18.0 18.0 16.2 89 1.1 E 11 13 6 7 - - 0.4
04/06:00pm 18.2 18.8 16.7 91 0.9 E 9 15 5 8 - - 0.4
04/05:50pm 18.2 19.1 16.7 91 0.9 ENE 7 11 4 6 - - 0.4
04/05:40pm 18.1 19.1 16.8 92 0.8 ENE 7 9 4 5 - - 0.4
04/05:30pm 18.2 19.3 17.0 93 0.8 ENE 7 11 4 6 - - 0.4
04/05:20pm 18.1 17.9 16.8 92 0.8 E 13 17 7 9 - - 0.4
04/05:10pm 18.2 18.1 16.9 92 0.8 E 13 15 7 8 - - 0.4
04/05:00pm 18.3 18.7 17.2 93 0.7 ENE 11 15 6 8 - - 0.4
04/04:50pm 18.4 19.2 17.2 93 0.8 E 9 15 5 8 - - 0.2
04/04:40pm 18.4 18.0 17.1 92 0.8 E 15 19 8 10 - - 0.2
04/04:30pm 18.7 18.0 17.4 92 0.8 E 17 22 9 12 - - 0.2
04/04:20pm 19.2 19.4 17.7 91 1.0 E 13 17 7 9 - - 0.0
04/04:10pm 19.7 19.9 17.7 88 1.3 E 13 17 7 9 - - 0.0
04/04:00pm 20.5 20.7 17.7 84 1.8 E 13 15 7 8 - - 0.0
04/03:50pm 21.1 21.1 17.3 79 2.4 E 13 17 7 9 - - 0.0
04/03:40pm 21.2 20.8 17.2 78 2.5 ENE 15 17 8 9 - - 0.0
04/03:30pm 20.6 20.9 17.1 80 2.2 ENE 11 15 6 8 - - 0.0
04/03:20pm 20.6 20.7 17.5 82 2.0 E 13 15 7 8 - - 0.0
04/03:10pm 20.4 20.7 17.1 81 2.1 E 11 17 6 9 - - 0.0
04/03:00pm 19.6 20.9 17.5 88 1.3 E 7 9 4 5 - - 0.0
04/02:50pm 19.4 20.2 17.3 88 1.3 E 9 11 5 6 - - 0.0
04/02:40pm 19.5 19.8 17.1 86 1.5 E 11 13 6 7 - - 0.0
04/02:30pm 19.9 19.8 16.9 83 1.9 ENE 13 17 7 9 - - 0.0
04/02:20pm 20.6 20.6 17.3 81 2.1 ENE 13 15 7 8 - - 0.0
04/02:10pm 20.5 20.5 17.3 82 2.0 E 13 17 7 9 - - 0.0
04/02:00pm 19.9 20.2 17.1 84 1.8 ENE 11 15 6 8 - - 0.0
04/01:50pm 19.6 19.1 16.8 84 1.8 E 15 22 8 12 - - 0.0
04/01:40pm 20.2 19.0 17.0 82 2.0 E 19 22 10 12 - - 0.0
04/01:30pm 20.7 20.5 16.8 78 2.5 E 13 20 7 11 - - 0.0
04/01:20pm 19.8 20.9 18.0 89 1.2 E 9 11 5 6 - - 0.0
04/01:10pm 20.0 19.7 17.4 85 1.7 E 15 17 8 9 - - 0.0
04/01:00pm 21.2 21.2 17.2 78 2.5 ENE 13 17 7 9 - - 0.0
04/12:50pm 21.3 20.4 16.9 76 2.8 E 17 24 9 13 - - 0.0
04/12:40pm 21.4 20.9 16.8 75 2.9 E 15 20 8 11 - - 0.0
04/12:30pm 20.5 19.6 16.8 79 2.3 E 17 22 9 12 - - 0.0
04/12:20pm 20.2 19.3 16.9 81 2.1 E 17 22 9 12 - - 0.0
04/12:10pm 19.9 18.9 17.6 86 1.5 E 19 20 10 11 - - 0.0
04/12:00pm 20.8 20.5 17.3 80 2.2 ENE 15 20 8 11 - - 0.0
04/11:50am 20.1 20.2 17.4 84 1.7 ENE 13 19 7 10 - - 0.0
04/11:40am 19.6 20.6 17.7 89 1.2 ENE 9 11 5 6 - - 0.0
04/11:30am 19.9 20.3 17.2 84 1.7 ENE 11 15 6 8 - - 0.0
04/11:20am 20.0 19.1 16.9 82 2.0 E 17 19 9 10 - - 0.0
04/11:10am 20.5 20.0 17.0 80 2.2 ENE 15 17 8 9 - - 0.0
04/11:00am 20.9 20.4 17.0 78 2.5 E 15 19 8 10 - - 0.0
04/10:50am 19.0 18.3 17.4 90 1.0 E 17 22 9 12 - - 0.0
04/10:40am 18.8 18.5 17.3 91 0.9 E 15 19 8 10 - - 0.0
04/10:30am 19.0 19.1 17.5 91 1.0 E 13 19 7 10 - - 0.0
04/10:20am 19.2 19.0 17.5 90 1.1 E 15 20 8 11 - - 0.0
04/10:10am 20.0 20.2 17.7 86 1.5 ENE 13 17 7 9 - - 0.0
04/10:00am 20.4 19.6 17.2 82 2.0 ENE 17 20 9 11 - - 0.0
04/09:50am 19.7 19.0 17.4 86 1.5 ENE 17 20 9 11 - - 0.0
04/09:40am 20.7 19.6 17.4 81 2.1 E 19 22 10 12 - - 0.0
04/09:30am 20.7 19.7 17.5 82 2.0 ENE 19 24 10 13 - - 0.0
04/09:20am 19.4 19.3 17.9 91 1.0 ENE 15 20 8 11 - - 0.0
04/09:10am 19.6 19.8 17.7 89 1.2 ENE 13 15 7 8 - - 0.0
04/09:00am 19.8 20.1 17.9 89 1.2 ENE 13 17 7 9 - - 0.0
04/08:50am 19.5 19.0 17.7 89 1.1 ENE 17 19 9 10 - - 0.0
04/08:40am 19.4 19.6 17.7 90 1.1 ENE 13 19 7 10 - - 0.0
04/08:30am 19.5 18.8 17.3 87 1.4 ENE 17 20 9 11 - - 0.0
04/08:20am 19.8 19.6 17.5 86 1.5 ENE 15 19 8 10 - - 0.0
04/08:10am 19.0 18.8 17.5 91 1.0 ENE 15 20 8 11 - - 0.0
04/08:00am 19.3 18.9 17.2 88 1.3 ENE 15 19 8 10 - - 0.0
04/07:50am 19.6 19.1 16.9 84 1.7 ENE 15 20 8 11 - - 0.0
04/07:40am 19.4 19.2 16.8 85 1.6 ENE 13 19 7 10 - - 0.0
04/07:30am 19.0 18.0 16.6 86 1.5 ENE 17 19 9 10 - - 0.0
04/07:20am 18.6 18.3 16.5 87 1.3 ENE 13 19 7 10 - - 0.0
04/07:10am 18.3 18.1 16.6 90 1.1 ENE 13 17 7 9 - - 0.0
04/07:00am 18.1 17.0 16.4 90 1.1 ENE 17 22 9 12 - - 0.0
04/06:50am 17.9 17.5 16.3 90 1.0 ENE 13 17 7 9 - - 0.0
04/06:40am 17.9 17.5 16.3 90 1.0 ENE 13 15 7 8 - - 0.0
04/06:30am 18.0 17.8 16.6 91 0.9 ENE 13 17 7 9 - - 0.0
04/06:20am 17.8 17.5 16.5 92 0.8 ENE 13 19 7 10 - - 0.0
04/06:10am 17.6 17.6 16.3 92 0.8 ENE 11 15 6 8 - - 0.0
04/06:00am 17.7 17.4 16.4 92 0.8 NE 13 13 7 7 - - 0.0
04/05:50am 17.7 17.4 16.5 93 0.7 ENE 13 20 7 11 - - 0.0
04/05:40am 17.7 17.4 16.5 93 0.7 NE 13 19 7 10 - - 0.0
04/05:30am 17.7 17.4 16.4 92 0.8 ENE 13 17 7 9 - - 0.0
04/05:20am 17.8 17.2 16.6 93 0.7 ENE 15 20 8 11 - - 0.0
04/05:10am 17.7 17.1 16.6 93 0.7 ENE 15 17 8 9 - - 0.0
04/05:00am 17.4 17.0 16.1 92 0.8 ENE 13 15 7 8 - - 0.0
04/04:50am 17.4 16.6 16.2 93 0.7 ENE 15 19 8 10 - - 0.0
04/04:40am 17.4 17.0 16.1 92 0.8 ENE 13 17 7 9 - - 0.0
04/04:30am 17.3 16.5 16.0 92 0.8 ENE 15 17 8 9 - - 0.0
04/04:20am 17.5 16.4 16.3 93 0.7 ENE 17 19 9 10 - - 0.0
04/04:10am 17.8 17.2 16.6 93 0.7 ENE 15 20 8 11 - - 0.0
04/04:00am 17.7 17.0 16.5 93 0.7 ENE 15 19 8 10 - - 0.0
04/03:50am 17.7 17.4 16.5 93 0.7 ENE 13 19 7 10 - - 0.0
04/03:40am 17.8 17.6 16.6 93 0.7 ENE 13 15 7 8 - - 0.0
04/03:30am 17.7 17.5 16.6 93 0.7 ENE 13 15 7 8 - - 0.0
04/03:20am 17.7 17.5 16.7 94 0.6 ENE 13 15 7 8 - - 0.0
04/03:10am 17.7 17.5 16.7 94 0.6 ENE 13 17 7 9 - - 0.0
04/03:00am 17.7 17.5 16.7 94 0.6 ENE 13 20 7 11 - - 0.0
04/02:50am 17.8 17.3 16.8 94 0.6 ENE 15 20 8 11 - - 0.0
04/02:40am 17.8 18.0 16.8 94 0.6 ENE 11 15 6 8 - - 0.0
04/02:30am 17.7 17.5 16.7 94 0.6 ENE 13 17 7 9 - - 0.0
04/02:20am 17.6 17.7 16.5 93 0.7 ENE 11 19 6 10 - - 0.0
04/02:10am 17.6 16.9 16.4 93 0.7 ENE 15 20 8 11 - - 0.0
04/02:00am 17.8 16.8 16.7 93 0.7 ENE 17 22 9 12 - - 0.0
04/01:50am 17.7 17.8 16.6 93 0.7 ENE 11 17 6 9 - - 0.0
04/01:40am 17.5 17.1 16.3 93 0.7 ENE 13 17 7 9 - - 0.0
04/01:30am 17.4 17.0 16.1 92 0.8 ENE 13 19 7 10 - - 0.0
04/01:20am 17.3 16.9 16.1 93 0.7 ENE 13 19 7 10 - - 0.0
04/01:10am 17.1 17.0 15.9 93 0.7 ENE 11 13 6 7 - - 0.0
04/01:00am 17.1 17.0 15.9 93 0.7 NE 11 13 6 7 - - 0.0
04/12:50am 17.2 17.5 15.9 92 0.8 NE 9 13 5 7 - - 0.0
04/12:40am 17.2 17.8 15.9 92 0.8 NE 7 9 4 5 - - 0.0
04/12:30am 17.2 17.0 15.8 91 0.9 ENE 11 13 6 7 - - 0.0
04/12:20am 17.1 17.2 15.6 91 0.9 ENE 9 13 5 7 - - 0.0
04/12:10am 17.1 17.2 15.4 90 1.0 NE 9 13 5 7 - - 0.0
04/12:00am 17.1 17.1 15.3 89 1.1 NE 9 11 5 6 - - 0.0

Other formats

Comma delimited format used in spreadsheet applications
http://www.bom.gov.au/fwo/IDQ60801/IDQ60801.99124.axf

JavaScript Object Notation format (JSON) in row-major order
http://www.bom.gov.au/fwo/IDQ60801/IDQ60801.99124.json

Data quality

Most of these data are generated automatically and are frequently updated. Quality checks on data are not normally performed. It is possible for incorrect values to appear. Refer to information at About Latest Weather Observations and please check the disclaimer before using these data.